Time;durP1;ratioP1;P1;durP2;ratioP2;P2;SDS_P1;SDS_P2;PMS_P1;PMS_P2;Temp;Humidity;BMP_temperature;BMP_pressure;BME280_temperature;BME280_humidity;BME280_pressure;Samples;Min_cycle;Max_cycle;Signal;HPM_P1;HPM_P2
2022/03/18 00:01:15;;;;;;;15.80;3.10;;;;;;;;;;5035540;28;20523;-81
2022/03/18 00:03:41;;;;;;;9.80;3.38;;;;;;;;;;5036042;28;20036;-82
2022/03/18 00:06:09;;;;;;;11.70;3.17;;;;;;;;;;5028899;28;20048;-81
2022/03/18 00:08:35;;;;;;;6.75;2.58;;;;;;;;;;5034256;28;20037;-82
2022/03/18 00:11:02;;;;;;;13.60;2.97;;;;;;;;;;4998143;28;20042;-82
2022/03/18 00:13:28;;;;;;;6.65;2.90;;;;;;;;;;5011326;28;20026;-83
2022/03/18 00:15:54;;;;;;;11.52;2.95;;;;;;;;;;5034389;28;20067;-80
2022/03/18 00:18:20;;;;;;;6.38;2.72;;;;;;;;;;5037331;28;20026;-82
2022/03/18 00:20:48;;;;;;;7.32;2.40;;;;;;;;;;5036236;28;20026;-80
2022/03/18 00:23:14;;;;;;;11.48;2.42;;;;;;;;;;5018619;28;20450;-81
2022/03/18 00:25:40;;;;;;;9.98;2.15;;;;;;;;;;5019931;28;20018;-82
2022/03/18 00:28:06;;;;;;;6.85;2.40;;;;;;;;;;5038433;28;20454;-83
2022/03/18 00:30:32;;;;;;;6.30;2.13;;;;;;;;;;5022845;23;20053;-84
2022/03/18 00:33:00;;;;;;;6.82;2.30;;;;;;;;;;5017352;28;20033;-82
2022/03/18 00:35:27;;;;;;;11.35;3.10;;;;;;;;;;5015328;28;20497;-82
2022/03/18 00:37:53;;;;;;;12.60;2.22;;;;;;;;;;5019022;28;20089;-83
2022/03/18 00:40:19;;;;;;;10.63;2.13;;;;;;;;;;5022334;28;20049;-80
2022/03/18 00:42:46;;;;;;;8.80;2.08;;;;;;;;;;5004342;28;20098;-83
2022/03/18 00:45:13;;;;;;;7.03;2.10;;;;;;;;;;4997084;28;20097;-81
2022/03/18 00:53:08;;;;;;;5.78;2.20;;;;;;;;;;4998760;28;20041;-83
2022/03/18 00:55:34;;;;;;;7.72;2.47;;;;;;;;;;4979487;28;20034;-83
2022/03/18 00:58:00;;;;;;;10.80;3.10;;;;;;;;;;4996715;28;20031;-82
2022/03/18 01:00:26;;;;;;;8.52;2.20;;;;;;;;;;4995959;28;20586;-83
2022/03/18 01:02:52;;;;;;;7.40;2.50;;;;;;;;;;4999934;28;20030;-82
2022/03/18 01:05:18;;;;;;;6.13;2.40;;;;;;;;;;5001535;28;20040;-83
2022/03/18 01:07:44;;;;;;;9.55;2.47;;;;;;;;;;5002675;28;20078;-84
2022/03/18 01:10:10;;;;;;;9.02;2.65;;;;;;;;;;5000902;28;20018;-81
2022/03/18 01:12:37;;;;;;;8.90;2.55;;;;;;;;;;5001914;28;20030;-82
2022/03/18 01:15:03;;;;;;;9.48;3.03;;;;;;;;;;5000813;28;20034;-83
2022/03/18 01:17:29;;;;;;;7.03;2.22;;;;;;;;;;5000484;28;20498;-81
2022/03/18 01:19:55;;;;;;;8.32;2.47;;;;;;;;;;4981174;28;20046;-83
2022/03/18 01:22:21;;;;;;;8.20;2.15;;;;;;;;;;4997663;28;20026;-84
2022/03/18 01:24:47;;;;;;;15.23;2.50;;;;;;;;;;5000095;28;20031;-84
2022/03/18 01:27:13;;;;;;;11.65;3.10;;;;;;;;;;4982625;28;20033;-85
2022/03/18 01:29:39;;;;;;;18.67;4.65;;;;;;;;;;5000304;28;20117;-82
2022/03/18 01:32:05;;;;;;;13.10;2.30;;;;;;;;;;4998481;28;20391;-81
2022/03/18 01:34:31;;;;;;;7.68;2.25;;;;;;;;;;4997955;28;20113;-85
2022/03/18 01:36:57;;;;;;;5.90;2.22;;;;;;;;;;4997421;28;20025;-83
2022/03/18 01:39:23;;;;;;;9.80;2.15;;;;;;;;;;4999200;28;20031;-83
2022/03/18 01:41:50;;;;;;;10.40;2.60;;;;;;;;;;4998004;28;20113;-83
2022/03/18 01:44:16;;;;;;;7.07;2.47;;;;;;;;;;4997098;28;20026;-82
2022/03/18 01:46:42;;;;;;;9.43;2.97;;;;;;;;;;4997838;28;20027;-83
2022/03/18 01:49:08;;;;;;;8.65;2.33;;;;;;;;;;5000015;28;20038;-82
2022/03/18 01:51:35;;;;;;;7.25;2.17;;;;;;;;;;5000070;28;20045;-80
2022/03/18 01:56:45;;;;;;;8.52;2.65;;;;;;;;;;4998601;28;20088;-83
2022/03/18 01:59:15;;;;;;;10.63;2.60;;;;;;;;;;4981889;28;20042;-84
2022/03/18 02:01:41;;;;;;;8.55;3.00;;;;;;;;;;4999741;28;20490;-82
2022/03/18 02:04:07;;;;;;;10.10;2.50;;;;;;;;;;5000360;28;20030;-83
2022/03/18 02:06:33;;;;;;;11.27;3.30;;;;;;;;;;5000905;28;20082;-82
2022/03/18 02:08:59;;;;;;;18.25;3.47;;;;;;;;;;4999085;28;20027;-83
2022/03/18 02:11:26;;;;;;;12.45;3.30;;;;;;;;;;4999936;28;20028;-81
2022/03/18 02:13:53;;;;;;;11.32;2.78;;;;;;;;;;5011619;28;20021;-85
2022/03/18 02:16:19;;;;;;;7.82;2.80;;;;;;;;;;5007734;28;20069;-82
2022/03/18 02:18:45;;;;;;;12.80;2.72;;;;;;;;;;4977504;28;20026;-82
2022/03/18 02:21:13;;;;;;;14.95;2.50;;;;;;;;;;4999231;28;20034;-82
2022/03/18 02:23:40;;;;;;;10.00;2.53;;;;;;;;;;4999618;28;20085;-82
2022/03/18 02:26:06;;;;;;;12.95;2.97;;;;;;;;;;4999833;28;20089;-82
2022/03/18 02:28:32;;;;;;;10.95;2.55;;;;;;;;;;4997860;28;20462;-82
2022/03/18 02:30:58;;;;;;;8.50;2.67;;;;;;;;;;4998318;28;20034;-82
2022/03/18 02:33:24;;;;;;;4.22;1.95;;;;;;;;;;4979942;28;20065;-83
2022/03/18 02:35:54;;;;;;;10.73;2.33;;;;;;;;;;4996843;28;20421;-82
2022/03/18 02:38:20;;;;;;;10.93;2.55;;;;;;;;;;5000489;28;20081;-79
2022/03/18 02:40:46;;;;;;;8.70;2.72;;;;;;;;;;5002435;28;20505;-81
2022/03/18 02:43:12;;;;;;;6.35;2.25;;;;;;;;;;4997107;28;20030;-84
2022/03/18 02:45:38;;;;;;;13.18;2.78;;;;;;;;;;4997584;28;20022;-83
2022/03/18 02:48:04;;;;;;;10.05;2.53;;;;;;;;;;4997020;28;20069;-80
2022/03/18 02:50:30;;;;;;;7.00;2.20;;;;;;;;;;4997425;28;20018;-83
2022/03/18 02:52:56;;;;;;;14.10;2.90;;;;;;;;;;4997979;28;20093;-80
2022/03/18 02:55:22;;;;;;;15.25;4.20;;;;;;;;;;4980110;28;20064;-80
2022/03/18 02:57:48;;;;;;;13.00;3.20;;;;;;;;;;4996600;28;20072;-82
2022/03/18 03:00:16;;;;;;;14.02;2.63;;;;;;;;;;4996852;28;20502;-80
2022/03/18 03:02:42;;;;;;;10.60;3.08;;;;;;;;;;4979601;28;20026;-83
2022/03/18 03:08:00;;;;;;;10.07;2.88;;;;;;;;;;4998084;28;20135;-83
2022/03/18 03:10:26;;;;;;;13.07;3.83;;;;;;;;;;4997772;28;20022;-82
2022/03/18 03:12:53;;;;;;;5.88;2.70;;;;;;;;;;4996585;28;20030;-80
2022/03/18 03:15:19;;;;;;;10.20;2.70;;;;;;;;;;4996262;28;20026;-81
2022/03/18 03:17:45;;;;;;;10.63;2.83;;;;;;;;;;4993948;28;20027;-81
2022/03/18 03:20:11;;;;;;;9.23;2.95;;;;;;;;;;4977893;28;20027;-80
2022/03/18 03:22:37;;;;;;;10.60;3.05;;;;;;;;;;4977738;28;20098;-81
2022/03/18 03:25:03;;;;;;;11.43;3.22;;;;;;;;;;4990784;28;20034;-82
2022/03/18 03:27:30;;;;;;;14.30;3.65;;;;;;;;;;4997027;28;20093;-80
2022/03/18 03:30:03;;;;;;;15.10;3.38;;;;;;;;;;4995512;28;20082;-80
2022/03/18 03:32:29;;;;;;;14.50;4.00;;;;;;;;;;4996632;28;20030;-80
2022/03/18 03:34:55;;;;;;;7.25;3.35;;;;;;;;;;4996244;28;20417;-80
2022/03/18 03:37:22;;;;;;;8.55;3.47;;;;;;;;;;4978727;28;20034;-81
2022/03/18 03:39:48;;;;;;;12.95;3.85;;;;;;;;;;4996378;28;20487;-80
2022/03/18 03:42:14;;;;;;;12.95;3.97;;;;;;;;;;4996663;28;20085;-80
2022/03/18 03:44:39;;;;;;;14.60;3.88;;;;;;;;;;4997392;28;20026;-81
2022/03/18 03:47:05;;;;;;;9.65;3.72;;;;;;;;;;4997227;28;20482;-81
2022/03/18 03:49:31;;;;;;;10.30;3.65;;;;;;;;;;4995398;28;20023;-80
2022/03/18 03:51:58;;;;;;;13.88;3.90;;;;;;;;;;4995074;28;20394;-80
2022/03/18 03:54:23;;;;;;;8.98;3.38;;;;;;;;;;4996001;28;20785;-83
2022/03/18 03:56:50;;;;;;;9.93;3.40;;;;;;;;;;4996739;28;20116;-83
2022/03/18 03:59:16;;;;;;;11.60;3.97;;;;;;;;;;4978540;28;20026;-81
2022/03/18 04:01:42;;;;;;;14.27;3.55;;;;;;;;;;4995870;28;20030;-80
2022/03/18 04:04:07;;;;;;;13.48;3.35;;;;;;;;;;4995674;28;20054;-82
2022/03/18 04:06:33;;;;;;;16.42;3.35;;;;;;;;;;4995707;28;20023;-81
2022/03/18 04:09:00;;;;;;;9.10;3.97;;;;;;;;;;4995851;28;20026;-81
2022/03/18 04:11:25;;;;;;;11.40;3.65;;;;;;;;;;5043379;22;20046;-82
2022/03/18 04:13:51;;;;;;;9.32;3.78;;;;;;;;;;5038760;28;20087;-83
2022/03/18 04:16:17;;;;;;;13.38;4.05;;;;;;;;;;5056008;28;20032;-84
2022/03/18 04:18:43;;;;;;;14.18;3.65;;;;;;;;;;5043577;28;20531;-82
2022/03/18 04:21:09;;;;;;;9.35;3.47;;;;;;;;;;5025833;28;20029;-83
2022/03/18 04:23:35;;;;;;;11.38;3.03;;;;;;;;;;5034936;28;20055;-81
2022/03/18 04:26:01;;;;;;;14.88;4.07;;;;;;;;;;5019006;28;20108;-82
2022/03/18 04:28:27;;;;;;;13.63;4.00;;;;;;;;;;5036039;28;20026;-82
2022/03/18 04:30:53;;;;;;;12.30;4.15;;;;;;;;;;5035929;28;20034;-82
2022/03/18 04:33:19;;;;;;;7.03;3.40;;;;;;;;;;5033544;28;20033;-82
2022/03/18 04:35:45;;;;;;;9.63;3.20;;;;;;;;;;5016324;28;20037;-82
2022/03/18 04:38:11;;;;;;;14.50;3.67;;;;;;;;;;5037826;28;20021;-82
2022/03/18 04:40:37;;;;;;;17.33;4.20;;;;;;;;;;5019910;28;20037;-82
2022/03/18 04:43:03;;;;;;;13.25;3.40;;;;;;;;;;5037830;28;20029;-83
2022/03/18 04:45:29;;;;;;;12.07;3.15;;;;;;;;;;5038307;28;20682;-81
2022/03/18 04:47:55;;;;;;;8.35;3.53;;;;;;;;;;5036928;28;20056;-82
2022/03/18 04:50:21;;;;;;;11.90;4.28;;;;;;;;;;5019646;28;20024;-81
2022/03/18 04:52:47;;;;;;;10.50;4.00;;;;;;;;;;5038228;28;20055;-82
2022/03/18 04:55:13;;;;;;;11.60;3.97;;;;;;;;;;5050950;28;20030;-82
2022/03/18 04:57:39;;;;;;;14.40;3.85;;;;;;;;;;5057838;28;20033;-83
2022/03/18 05:00:05;;;;;;;8.85;3.80;;;;;;;;;;5058071;28;20026;-82
2022/03/18 05:02:31;;;;;;;12.63;3.35;;;;;;;;;;5058467;28;20041;-82
2022/03/18 05:04:57;;;;;;;13.95;3.30;;;;;;;;;;5034352;28;20037;-83
2022/03/18 05:07:25;;;;;;;14.20;3.83;;;;;;;;;;5044879;28;20036;-83
2022/03/18 05:09:50;;;;;;;15.65;3.60;;;;;;;;;;5027814;28;20017;-83
2022/03/18 05:12:17;;;;;;;11.68;3.67;;;;;;;;;;5046767;28;20022;-83
2022/03/18 05:14:43;;;;;;;13.27;3.67;;;;;;;;;;5044402;28;20453;-83
2022/03/18 05:17:10;;;;;;;11.85;4.00;;;;;;;;;;5037629;28;20390;-80
2022/03/18 05:19:37;;;;;;;12.30;3.83;;;;;;;;;;5042015;28;20029;-83
2022/03/18 05:22:03;;;;;;;11.05;3.80;;;;;;;;;;5041261;28;20084;-81
2022/03/18 05:24:29;;;;;;;13.07;4.70;;;;;;;;;;5041364;28;20033;-82
2022/03/18 05:26:56;;;;;;;17.50;3.90;;;;;;;;;;5040606;28;20027;-83
2022/03/18 05:29:22;;;;;;;12.02;3.75;;;;;;;;;;5024504;28;20017;-83
2022/03/18 05:31:48;;;;;;;15.32;3.95;;;;;;;;;;5041563;28;20379;-83
2022/03/18 05:34:14;;;;;;;10.27;4.45;;;;;;;;;;5041129;28;20040;-82
2022/03/18 05:36:41;;;;;;;17.20;4.25;;;;;;;;;;5041618;28;20116;-82
2022/03/18 05:39:07;;;;;;;12.85;3.67;;;;;;;;;;5022876;28;20044;-81
2022/03/18 05:41:33;;;;;;;18.27;3.97;;;;;;;;;;5040941;28;20048;-81
2022/03/18 05:43:59;;;;;;;15.10;4.07;;;;;;;;;;5041758;28;20021;-83
2022/03/18 05:46:25;;;;;;;13.38;3.95;;;;;;;;;;5040557;28;20031;-81
2022/03/18 05:48:51;;;;;;;14.13;3.60;;;;;;;;;;5041876;28;20030;-81
2022/03/18 05:51:18;;;;;;;13.90;4.20;;;;;;;;;;5021986;28;20362;-83
2022/03/18 05:53:44;;;;;;;17.13;3.95;;;;;;;;;;5041829;28;20052;-82
2022/03/18 05:58:55;;;;;;;8.82;3.95;;;;;;;;;;5044167;28;20490;-81
2022/03/18 06:01:21;;;;;;;11.68;3.95;;;;;;;;;;5025394;28;20029;-83
2022/03/18 06:03:50;;;;;;;12.13;3.72;;;;;;;;;;5042668;28;20030;-82
2022/03/18 06:06:16;;;;;;;18.63;4.28;;;;;;;;;;5024526;28;20109;-83
2022/03/18 06:14:11;;;;;;;14.68;5.05;;;;;;;;;;5037401;28;20041;-82
2022/03/18 06:16:39;;;;;;;13.82;5.18;;;;;;;;;;5042159;28;20428;-82
2022/03/18 06:19:05;;;;;;;16.55;4.70;;;;;;;;;;5031754;28;20028;-82
2022/03/18 06:21:31;;;;;;;14.48;4.43;;;;;;;;;;5022412;28;20108;-82
2022/03/18 06:23:57;;;;;;;14.23;4.10;;;;;;;;;;5031407;28;20450;-83
2022/03/18 06:26:22;;;;;;;16.25;6.25;;;;;;;;;;5024135;28;20099;-83
2022/03/18 06:28:49;;;;;;;13.65;5.35;;;;;;;;;;5042311;28;20021;-82
2022/03/18 06:31:15;;;;;;;12.45;4.72;;;;;;;;;;5042753;28;20030;-83
2022/03/18 06:33:44;;;;;;;18.73;4.75;;;;;;;;;;5051466;28;20079;-83
2022/03/18 06:36:14;;;;;;;14.23;4.72;;;;;;;;;;5029678;28;20049;-83
2022/03/18 06:38:40;;;;;;;14.93;4.28;;;;;;;;;;5026760;28;20030;-82
2022/03/18 06:41:06;;;;;;;13.02;4.65;;;;;;;;;;5031078;28;20034;-83
2022/03/18 06:43:32;;;;;;;10.23;4.80;;;;;;;;;;5024257;28;20470;-82
2022/03/18 06:45:58;;;;;;;14.55;4.95;;;;;;;;;;5036656;28;20052;-84
2022/03/18 06:48:25;;;;;;;8.50;4.65;;;;;;;;;;5031004;28;20049;-84
2022/03/18 06:50:51;;;;;;;19.85;4.90;;;;;;;;;;5056966;28;20103;-84
2022/03/18 06:53:17;;;;;;;16.38;4.50;;;;;;;;;;5056286;28;20029;-84
2022/03/18 06:55:43;;;;;;;10.93;5.45;;;;;;;;;;5039283;28;20026;-83
2022/03/18 06:58:09;;;;;;;12.65;4.50;;;;;;;;;;5038006;28;20032;-82
2022/03/18 07:00:35;;;;;;;19.17;5.22;;;;;;;;;;5036243;28;20056;-82
2022/03/18 07:03:01;;;;;;;11.75;5.00;;;;;;;;;;5041045;28;20031;-83
2022/03/18 07:05:27;;;;;;;14.00;5.65;;;;;;;;;;5040527;28;20056;-82
2022/03/18 07:07:54;;;;;;;9.45;4.85;;;;;;;;;;5022294;28;20021;-83
2022/03/18 07:10:20;;;;;;;15.65;5.10;;;;;;;;;;5038958;28;20069;-82
2022/03/18 07:12:46;;;;;;;18.98;6.68;;;;;;;;;;5004466;28;20481;-82
2022/03/18 07:15:12;;;;;;;16.67;5.70;;;;;;;;;;5020197;28;20029;-82
2022/03/18 07:17:59;;;;;;;20.67;5.20;;;;;;;;;;5023703;28;20041;-82
2022/03/18 07:20:29;;;;;;;17.17;4.95;;;;;;;;;;5035212;28;20149;-82
2022/03/18 07:23:01;;;;;;;15.98;5.57;;;;;;;;;;5021200;28;20279;-83
2022/03/18 07:25:27;;;;;;;20.00;5.28;;;;;;;;;;5022006;28;20050;-83
2022/03/18 07:27:53;;;;;;;14.85;5.05;;;;;;;;;;5022902;28;20025;-83
2022/03/18 07:30:19;;;;;;;19.52;5.82;;;;;;;;;;5035266;28;20127;-84
2022/03/18 07:32:45;;;;;;;12.05;5.43;;;;;;;;;;5041033;28;20064;-83
2022/03/18 07:35:11;;;;;;;14.32;5.20;;;;;;;;;;5020080;28;20053;-83
2022/03/18 07:37:37;;;;;;;11.93;4.80;;;;;;;;;;5020975;28;20151;-82
2022/03/18 07:40:05;;;;;;;18.15;5.43;;;;;;;;;;5035546;28;20056;-82
2022/03/18 07:42:41;;;;;;;13.18;4.53;;;;;;;;;;5040635;28;20060;-83
2022/03/18 07:45:08;;;;;;;12.55;4.47;;;;;;;;;;5033315;28;20032;-82
2022/03/18 07:47:34;;;;;;;10.23;4.82;;;;;;;;;;5018767;28;20044;-81
2022/03/18 07:50:00;;;;;;;14.90;5.75;;;;;;;;;;5031044;28;20068;-82
2022/03/18 07:52:26;;;;;;;15.00;5.65;;;;;;;;;;5036940;28;20025;-83
2022/03/18 07:54:52;;;;;;;16.80;5.20;;;;;;;;;;5032725;28;20040;-82
2022/03/18 07:57:18;;;;;;;14.57;5.20;;;;;;;;;;5032543;28;20034;-83
2022/03/18 07:59:44;;;;;;;17.42;5.28;;;;;;;;;;5002226;28;20509;-83
2022/03/18 08:02:10;;;;;;;12.15;5.13;;;;;;;;;;5019309;28;20037;-82
2022/03/18 08:04:36;;;;;;;12.32;5.00;;;;;;;;;;5028927;28;20037;-83
2022/03/18 08:07:03;;;;;;;13.15;5.65;;;;;;;;;;5005274;28;20393;-82
2022/03/18 08:09:29;;;;;;;13.18;5.15;;;;;;;;;;4996768;28;20022;-82
2022/03/18 08:11:55;;;;;;;11.38;5.32;;;;;;;;;;5013874;28;20033;-82
2022/03/18 08:14:22;;;;;;;20.38;7.03;;;;;;;;;;5023473;28;20029;-84
2022/03/18 08:16:48;;;;;;;14.43;5.47;;;;;;;;;;5028541;28;20481;-84
2022/03/18 08:19:14;;;;;;;14.90;5.53;;;;;;;;;;5010859;28;20029;-82
2022/03/18 08:21:40;;;;;;;14.50;6.07;;;;;;;;;;5037222;28;20032;-83
2022/03/18 08:30:38;;;;;;;12.68;6.13;;;;;;;;;;4958248;29;20043;-82
2022/03/18 08:37:12;;;;;;;;;;;;;;;;;;;;;
2022/03/18 08:48:37;;;;;;;;;;;;;;;;;;;;;
2022/03/18 08:54:25;;;;;;;20.00;7.57;;;;;;;;;;4993685;28;20076;-83
2022/03/18 08:56:51;;;;;;;13.27;7.60;;;;;;;;;;5019595;28;20026;-82
2022/03/18 08:59:17;;;;;;;17.52;7.57;;;;;;;;;;5039530;28;20017;-83
2022/03/18 09:01:43;;;;;;;19.63;7.20;;;;;;;;;;5055847;28;20076;-84
2022/03/18 09:07:30;;;;;;;16.88;8.52;;;;;;;;;;4973790;28;20053;-81
2022/03/18 09:18:26;;;;;;;14.32;7.70;;;;;;;;;;5021872;28;20044;-84
2022/03/18 09:20:52;;;;;;;17.60;7.82;;;;;;;;;;5011242;28;20109;-83
2022/03/18 09:23:18;;;;;;;17.42;7.57;;;;;;;;;;4995537;28;20178;-84
2022/03/18 09:25:44;;;;;;;18.73;7.60;;;;;;;;;;4996103;28;20458;-83
2022/03/18 09:28:10;;;;;;;15.52;7.95;;;;;;;;;;4990447;28;20018;-83
2022/03/18 09:30:36;;;;;;;19.27;7.68;;;;;;;;;;4999976;28;20034;-82
2022/03/18 09:33:13;;;;;;;22.50;7.80;;;;;;;;;;4982306;28;20421;-84
2022/03/18 09:38:29;;;;;;;17.75;7.95;;;;;;;;;;4988299;28;20069;-83
2022/03/18 09:44:03;;;;;;;18.52;7.97;;;;;;;;;;4971117;28;20129;-82
2022/03/18 09:46:52;;;;;;;17.23;7.68;;;;;;;;;;5016509;28;20038;-82
2022/03/18 09:52:31;;;;;;;15.00;7.50;;;;;;;;;;4989781;28;20055;-83
2022/03/18 10:05:59;;;;;;;12.80;6.75;;;;;;;;;;5448937;22;20046;-83
2022/03/18 10:08:47;;;;;;;18.60;7.50;;;;;;;;;;5036931;28;20116;-83
2022/03/18 10:11:14;;;;;;;14.40;7.43;;;;;;;;;;5005819;28;20033;-83
2022/03/18 10:13:52;;;;;;;17.08;7.28;;;;;;;;;;5047034;22;20076;-84
2022/03/18 10:16:30;;;;;;;17.10;7.53;;;;;;;;;;5034261;28;20044;-83
2022/03/18 10:18:56;;;;;;;13.70;6.90;;;;;;;;;;5018754;28;20021;-83
2022/03/18 10:21:23;;;;;;;13.38;6.72;;;;;;;;;;5023772;28;20037;-84
2022/03/18 10:23:50;;;;;;;11.40;7.25;;;;;;;;;;5044570;28;20116;-83
2022/03/18 10:26:16;;;;;;;13.65;7.47;;;;;;;;;;5044218;28;20056;-85
2022/03/18 10:28:43;;;;;;;14.65;7.65;;;;;;;;;;5035808;28;20030;-86
2022/03/18 10:31:15;;;;;;;15.68;7.03;;;;;;;;;;5012467;28;20029;-84
2022/03/18 10:39:28;;;;;;;19.35;8.48;;;;;;;;;;5025901;28;20052;-85
2022/03/18 10:41:54;;;;;;;17.42;7.70;;;;;;;;;;5012882;28;20040;-88
2022/03/18 10:44:20;;;;;;;15.32;7.45;;;;;;;;;;5030341;28;20018;-88
2022/03/18 10:46:50;;;;;;;13.40;7.47;;;;;;;;;;5012397;28;20033;-86
2022/03/18 10:49:17;;;;;;;20.60;9.80;;;;;;;;;;5031096;28;20029;-83
2022/03/18 10:51:44;;;;;;;18.25;10.27;;;;;;;;;;5010068;28;20022;-85
2022/03/18 10:54:11;;;;;;;20.75;10.32;;;;;;;;;;5006735;28;20036;-85
2022/03/18 10:56:57;;;;;;;19.85;11.27;;;;;;;;;;5005948;28;20045;-85
2022/03/18 10:59:26;;;;;;;20.08;10.68;;;;;;;;;;5029531;28;20025;-85
2022/03/18 11:01:52;;;;;;;17.27;10.10;;;;;;;;;;5012600;28;20034;-84
2022/03/18 11:04:18;;;;;;;17.98;10.48;;;;;;;;;;5012121;28;20030;-84
2022/03/18 11:07:29;;;;;;;19.70;10.18;;;;;;;;;;5011031;28;20053;-82
2022/03/18 11:11:07;;;;;;;18.58;9.98;;;;;;;;;;5026333;28;20033;-85
2022/03/18 11:12:23;;;;;;;19.13;10.57;;;;;;;;;;5028699;28;20030;-84
2022/03/18 11:14:53;;;;;;;19.95;10.30;;;;;;;;;;5029752;28;20060;-86
2022/03/18 11:17:20;;;;;;;18.20;10.57;;;;;;;;;;5017228;28;20519;-85
2022/03/18 11:19:46;;;;;;;18.42;10.43;;;;;;;;;;5030473;28;20018;-86
2022/03/18 11:22:13;;;;;;;20.00;9.65;;;;;;;;;;5038550;28;20026;-85
2022/03/18 11:24:40;;;;;;;18.73;9.70;;;;;;;;;;5013488;28;20033;-83
2022/03/18 11:27:06;;;;;;;18.58;9.75;;;;;;;;;;5030036;28;20041;-84
2022/03/18 11:29:34;;;;;;;17.27;9.68;;;;;;;;;;5029136;28;20037;-86
2022/03/18 11:32:13;;;;;;;15.88;9.63;;;;;;;;;;5029652;28;20021;-84
2022/03/18 11:34:59;;;;;;;14.63;9.27;;;;;;;;;;5011804;28;20037;-86
2022/03/18 11:37:26;;;;;;;16.10;9.75;;;;;;;;;;5028435;28;20107;-86
2022/03/18 11:39:52;;;;;;;19.13;10.05;;;;;;;;;;5021592;28;20034;-86
2022/03/18 11:42:20;;;;;;;18.70;10.60;;;;;;;;;;5019060;28;20028;-83
2022/03/18 11:44:49;;;;;;;18.45;11.10;;;;;;;;;;5021909;28;20034;-83
2022/03/18 11:47:21;;;;;;;20.98;11.55;;;;;;;;;;5019664;28;20033;-84
2022/03/18 11:49:48;;;;;;;16.70;9.55;;;;;;;;;;5019494;28;20682;-83
2022/03/18 11:52:14;;;;;;;19.83;10.40;;;;;;;;;;5020034;28;20034;-84
2022/03/18 11:54:58;;;;;;;19.95;10.68;;;;;;;;;;5021222;28;20061;-84
2022/03/18 11:57:33;;;;;;;17.20;9.20;;;;;;;;;;5021374;28;20025;-83
2022/03/18 12:00:00;;;;;;;15.35;9.43;;;;;;;;;;5003450;28;20026;-83
2022/03/18 12:02:52;;;;;;;19.75;9.68;;;;;;;;;;5018914;28;20022;-84
2022/03/18 12:05:20;;;;;;;15.80;9.43;;;;;;;;;;4997056;28;20113;-81
2022/03/18 12:07:51;;;;;;;13.70;8.40;;;;;;;;;;5020078;28;20033;-81
2022/03/18 12:10:33;;;;;;;15.75;9.18;;;;;;;;;;5002480;28;20026;-81
2022/03/18 12:13:02;;;;;;;15.93;8.95;;;;;;;;;;5018260;28;20030;-83
2022/03/18 12:15:29;;;;;;;12.00;7.65;;;;;;;;;;5002399;28;20030;-83
2022/03/18 12:17:56;;;;;;;15.07;8.93;;;;;;;;;;5020632;28;20046;-85
2022/03/18 12:20:25;;;;;;;14.65;8.70;;;;;;;;;;5002656;28;20032;-83
2022/03/18 12:22:55;;;;;;;16.58;8.63;;;;;;;;;;5035365;28;20025;-85
2022/03/18 12:25:22;;;;;;;12.40;7.97;;;;;;;;;;5035794;28;20030;-81
2022/03/18 12:27:49;;;;;;;14.38;8.27;;;;;;;;;;5009653;28;20061;-83
2022/03/18 12:30:19;;;;;;;14.30;7.55;;;;;;;;;;5020754;28;20050;-84
2022/03/18 12:32:52;;;;;;;20.83;7.33;;;;;;;;;;5020815;28;20056;-83
2022/03/18 12:35:19;;;;;;;16.42;8.05;;;;;;;;;;5003113;28;20093;-83
2022/03/18 12:37:46;;;;;;;17.73;8.05;;;;;;;;;;5020905;28;20112;-83
2022/03/18 12:40:12;;;;;;;14.60;7.88;;;;;;;;;;5020683;28;20033;-83
2022/03/18 12:42:45;;;;;;;13.45;7.10;;;;;;;;;;5000325;28;20038;-84
2022/03/18 12:45:12;;;;;;;19.00;8.20;;;;;;;;;;5026107;28;20112;-83
2022/03/18 12:47:38;;;;;;;12.77;7.07;;;;;;;;;;5037536;28;20026;-85
2022/03/18 12:50:05;;;;;;;16.42;7.70;;;;;;;;;;5019030;28;20022;-88
2022/03/18 12:52:43;;;;;;;15.50;7.22;;;;;;;;;;5018360;28;20034;-84
2022/03/18 12:55:10;;;;;;;16.83;7.25;;;;;;;;;;5001539;28;20493;-84
2022/03/18 12:57:41;;;;;;;11.90;7.22;;;;;;;;;;5001931;28;20037;-83
2022/03/18 13:00:09;;;;;;;11.18;6.40;;;;;;;;;;5005249;28;20061;-83
2022/03/18 13:02:35;;;;;;;13.70;6.35;;;;;;;;;;5021992;28;20037;-82
2022/03/18 13:05:02;;;;;;;10.82;5.88;;;;;;;;;;5004891;28;20025;-86
2022/03/18 13:07:28;;;;;;;13.35;6.15;;;;;;;;;;5022922;28;20018;-83
2022/03/18 13:09:55;;;;;;;14.70;6.95;;;;;;;;;;5003489;28;20025;-84
2022/03/18 13:12:32;;;;;;;13.80;6.78;;;;;;;;;;5020664;28;20101;-83
2022/03/18 13:14:59;;;;;;;14.18;6.05;;;;;;;;;;5003429;28;20034;-83
2022/03/18 13:17:30;;;;;;;19.13;6.50;;;;;;;;;;5021091;28;20367;-83
2022/03/18 13:19:56;;;;;;;17.42;6.63;;;;;;;;;;5020661;28;20022;-82
2022/03/18 13:22:23;;;;;;;10.82;5.25;;;;;;;;;;5020369;28;20030;-83
2022/03/18 13:24:50;;;;;;;12.40;5.35;;;;;;;;;;5020997;28;20081;-82
2022/03/18 13:27:23;;;;;;;11.50;5.55;;;;;;;;;;5002733;28;20025;-83
2022/03/18 13:32:51;;;;;;;14.95;5.82;;;;;;;;;;5021096;28;20115;-82
2022/03/18 13:35:22;;;;;;;12.38;5.28;;;;;;;;;;5021018;28;20367;-83
2022/03/18 13:38:07;;;;;;;14.13;5.10;;;;;;;;;;5020272;28;20022;-83
2022/03/18 13:40:34;;;;;;;13.90;4.93;;;;;;;;;;5004004;28;20528;-83
2022/03/18 13:43:04;;;;;;;10.38;4.82;;;;;;;;;;5004506;28;20056;-82
2022/03/18 13:45:31;;;;;;;15.55;5.68;;;;;;;;;;5022926;28;20076;-84
2022/03/18 13:47:57;;;;;;;8.63;4.13;;;;;;;;;;5005396;28;20052;-85
2022/03/18 13:50:25;;;;;;;9.10;4.38;;;;;;;;;;5005610;28;20026;-84
2022/03/18 13:52:52;;;;;;;11.20;4.57;;;;;;;;;;5005142;28;20045;-84
2022/03/18 13:55:32;;;;;;;9.02;4.13;;;;;;;;;;5005221;28;20506;-85
2022/03/18 13:57:59;;;;;;;10.30;4.40;;;;;;;;;;5022381;28;20026;-84
2022/03/18 14:00:25;;;;;;;12.23;3.72;;;;;;;;;;5004664;28;20022;-85
2022/03/18 14:03:05;;;;;;;8.65;3.92;;;;;;;;;;5002343;28;20061;-82
2022/03/18 14:05:32;;;;;;;12.00;4.30;;;;;;;;;;5020432;28;20025;-82
2022/03/18 14:07:59;;;;;;;11.57;4.53;;;;;;;;;;5020951;28;20044;-86
2022/03/18 14:10:35;;;;;;;10.73;3.60;;;;;;;;;;5020774;28;20022;-84
2022/03/18 14:13:09;;;;;;;12.75;4.40;;;;;;;;;;5005510;28;20040;-85
2022/03/18 14:15:37;;;;;;;11.45;3.67;;;;;;;;;;5024349;28;20025;-85
2022/03/18 14:18:04;;;;;;;11.80;3.63;;;;;;;;;;5024541;28;20026;-84
2022/03/18 14:20:31;;;;;;;8.20;4.30;;;;;;;;;;5024373;28;20022;-84
2022/03/18 14:22:58;;;;;;;9.82;3.17;;;;;;;;;;5020804;28;20040;-83
2022/03/18 14:25:28;;;;;;;13.32;3.80;;;;;;;;;;5025811;28;20026;-85
2022/03/18 14:27:54;;;;;;;8.60;4.25;;;;;;;;;;5006148;28;20022;-82
2022/03/18 14:30:26;;;;;;;11.32;4.28;;;;;;;;;;5023630;28;20353;-84
2022/03/18 14:33:00;;;;;;;7.35;4.45;;;;;;;;;;5004368;28;20057;-85
2022/03/18 14:35:29;;;;;;;13.88;4.75;;;;;;;;;;5023451;28;20110;-84
2022/03/18 14:37:57;;;;;;;7.25;4.03;;;;;;;;;;5021741;28;20072;-84
2022/03/18 14:40:26;;;;;;;11.55;4.40;;;;;;;;;;5022692;28;20025;-83
2022/03/18 14:42:52;;;;;;;8.55;3.63;;;;;;;;;;5019789;28;20054;-85
2022/03/18 14:45:18;;;;;;;12.27;4.00;;;;;;;;;;4998781;28;20096;-83
2022/03/18 14:47:46;;;;;;;8.20;3.45;;;;;;;;;;4993191;28;20076;-83
2022/03/18 14:50:15;;;;;;;7.28;3.47;;;;;;;;;;5019913;28;20371;-81
2022/03/18 14:52:42;;;;;;;8.48;3.80;;;;;;;;;;5020566;28;20033;-82
2022/03/18 14:57:53;;;;;;;7.72;3.00;;;;;;;;;;5029556;28;20040;-81
2022/03/18 15:00:19;;;;;;;10.93;3.05;;;;;;;;;;5016299;28;20049;-81
2022/03/18 15:02:45;;;;;;;6.32;2.65;;;;;;;;;;4981998;28;20018;-81
2022/03/18 15:05:11;;;;;;;7.75;2.75;;;;;;;;;;4997884;28;20038;-82
2022/03/18 15:07:38;;;;;;;6.38;2.70;;;;;;;;;;4997359;28;20497;-82
2022/03/18 15:10:05;;;;;;;9.00;3.08;;;;;;;;;;4981528;28;20027;-84
2022/03/18 15:12:31;;;;;;;12.00;3.10;;;;;;;;;;4993612;28;20029;-80
2022/03/18 15:14:57;;;;;;;6.60;2.90;;;;;;;;;;5000685;28;20505;-82
2022/03/18 15:17:24;;;;;;;7.40;2.83;;;;;;;;;;5005322;28;20116;-84
2022/03/18 15:19:50;;;;;;;6.35;2.50;;;;;;;;;;5016455;28;20028;-82
2022/03/18 15:22:19;;;;;;;6.35;2.42;;;;;;;;;;5010013;28;20037;-82
2022/03/18 15:24:45;;;;;;;3.75;2.03;;;;;;;;;;5020942;28;20032;-84
2022/03/18 15:27:13;;;;;;;7.00;2.03;;;;;;;;;;5019428;28;20079;-81
2022/03/18 15:29:40;;;;;;;6.03;2.17;;;;;;;;;;5038013;28;20136;-82
2022/03/18 15:32:08;;;;;;;7.38;2.30;;;;;;;;;;5037631;28;20045;-81
2022/03/18 15:34:34;;;;;;;6.82;2.33;;;;;;;;;;5037345;28;20175;-84
2022/03/18 15:37:00;;;;;;;8.35;1.90;;;;;;;;;;5037108;28;20049;-81
2022/03/18 15:39:26;;;;;;;6.18;2.10;;;;;;;;;;5031830;28;20058;-82
2022/03/18 15:41:54;;;;;;;7.28;2.97;;;;;;;;;;5019062;28;20084;-84
2022/03/18 15:44:20;;;;;;;12.40;2.25;;;;;;;;;;5018814;28;20030;-85
2022/03/18 15:46:47;;;;;;;6.57;2.05;;;;;;;;;;5002006;28;20022;-81
2022/03/18 15:49:14;;;;;;;5.20;2.00;;;;;;;;;;5019220;28;20026;-82
2022/03/18 15:51:40;;;;;;;6.65;2.53;;;;;;;;;;5018562;28;20478;-84
2022/03/18 15:54:08;;;;;;;6.00;1.42;;;;;;;;;;5017154;28;20033;-81
2022/03/18 15:56:38;;;;;;;4.43;2.00;;;;;;;;;;5017694;28;20042;-84
2022/03/18 15:59:09;;;;;;;5.20;1.88;;;;;;;;;;5017629;28;20032;-82
2022/03/18 16:01:35;;;;;;;5.60;2.53;;;;;;;;;;5017712;28;20522;-83